Time;durP1;ratioP1;P1;durP2;ratioP2;P2;SDS_P1;SDS_P2;PMS_P1;PMS_P2;Temp;Humidity;BMP_temperature;BMP_pressure;BME280_temperature;BME280_humidity;BME280_pressure;Samples;Min_cycle;Max_cycle;Signal;HPM_P1;HPM_P2
2021/06/10 00:02:02;;;;;;;4.25;3.85;;;;;;;17.22;71.95;100943.75;6296298;22;20011;-74
2021/06/10 00:04:31;;;;;;;2.58;2.30;;;;;;;17.21;71.61;100937.38;6293901;22;20010;-75
2021/06/10 00:06:59;;;;;;;5.00;4.45;;;;;;;17.26;71.64;100942.84;6269818;22;20031;-74
2021/06/10 00:09:29;;;;;;;6.28;4.50;;;;;;;17.07;72.15;100925.44;6295124;22;20047;-74
2021/06/10 00:11:58;;;;;;;5.80;4.22;;;;;;;16.97;72.18;100922.78;6295889;22;20015;-74
2021/06/10 00:14:26;;;;;;;5.72;4.30;;;;;;;17.11;72.44;100948.56;6316189;22;19999;-72
2021/06/10 00:16:51;;;;;;;5.28;4.80;;;;;;;17.05;72.56;100950.56;6319990;22;20003;-74
2021/06/10 00:19:17;;;;;;;6.65;5.10;;;;;;;16.89;72.83;100938.09;6318271;22;20046;-74
2021/06/10 00:21:42;;;;;;;5.97;4.55;;;;;;;16.95;73.25;100944.38;6291083;22;20007;-73
2021/06/10 00:24:08;;;;;;;6.38;5.85;;;;;;;16.89;73.17;100947.22;6317003;22;20003;-74
2021/06/10 00:26:34;;;;;;;5.45;4.95;;;;;;;16.83;73.56;100937.31;6318958;22;20010;-74
2021/06/10 00:29:00;;;;;;;6.97;5.55;;;;;;;16.79;73.88;100935.44;6290572;22;20003;-75
2021/06/10 00:31:25;;;;;;;6.97;4.68;;;;;;;16.73;73.78;100935.50;6291647;22;20014;-73
2021/06/10 00:33:51;;;;;;;8.63;5.18;;;;;;;16.70;74.33;100940.78;6317264;22;20011;-74
2021/06/10 00:36:17;;;;;;;6.90;3.97;;;;;;;16.65;74.21;100935.34;6292208;22;20007;-73
2021/06/10 00:38:43;;;;;;;4.32;3.92;;;;;;;16.68;74.52;100941.06;6287919;22;20007;-73
2021/06/10 00:41:09;;;;;;;5.32;4.05;;;;;;;16.66;74.28;100937.81;6260015;22;20012;-73
2021/06/10 00:43:34;;;;;;;4.13;3.80;;;;;;;16.69;73.89;100933.59;6260788;22;20508;-73
2021/06/10 00:45:59;;;;;;;5.05;4.57;;;;;;;16.69;73.80;100925.31;6286009;22;19999;-73
2021/06/10 00:48:25;;;;;;;4.55;4.15;;;;;;;16.70;73.75;100926.97;6260261;22;20011;-73
2021/06/10 00:50:51;;;;;;;5.63;5.00;;;;;;;16.70;73.61;100932.50;6285440;22;20015;-74
2021/06/10 00:53:22;;;;;;;8.18;5.72;;;;;;;16.67;73.92;100927.56;6259440;22;20015;-73
2021/06/10 00:55:52;;;;;;;4.50;4.10;;;;;;;16.66;74.56;100929.53;6258337;22;20004;-74
2021/06/10 00:58:18;;;;;;;4.60;4.20;;;;;;;16.67;74.38;100911.00;6282096;22;20011;-74
2021/06/10 01:00:44;;;;;;;4.03;3.53;;;;;;;16.65;74.18;100919.59;6257335;22;20483;-75
2021/06/10 01:03:09;;;;;;;5.07;4.47;;;;;;;16.63;74.39;100909.94;6259652;22;20431;-75
2021/06/10 01:05:37;;;;;;;4.88;4.47;;;;;;;16.61;74.06;100906.66;6285029;22;20368;-74
2021/06/10 01:08:06;;;;;;;5.60;4.68;;;;;;;16.66;74.21;100909.34;6260717;22;20323;-73
2021/06/10 01:11:08;;;;;;;3.78;3.05;;;;;;;16.72;74.05;100908.19;6257513;22;20068;-73
2021/06/10 01:13:46;;;;;;;3.08;2.88;;;;;;;16.72;73.46;100914.53;6258541;22;20057;-73
2021/06/10 01:16:15;;;;;;;6.75;4.35;;;;;;;16.69;73.49;100903.22;6286121;22;20014;-73
2021/06/10 01:18:41;;;;;;;4.53;3.50;;;;;;;16.67;74.20;100914.56;6285205;22;19999;-73
2021/06/10 01:21:07;;;;;;;3.75;3.45;;;;;;;16.69;73.89;100917.03;6257156;22;20007;-73
2021/06/10 01:23:40;;;;;;;4.03;3.72;;;;;;;16.66;74.42;100901.06;6259616;22;20822;-74
2021/06/10 01:26:28;;;;;;;2.92;2.70;;;;;;;16.69;74.01;100906.00;6258733;22;20441;-76
2021/06/10 01:28:56;;;;;;;3.28;3.08;;;;;;;16.66;74.14;100906.59;6287399;22;19995;-75
2021/06/10 01:31:22;;;;;;;3.88;3.67;;;;;;;16.57;74.30;100907.25;6259626;22;20008;-75
2021/06/10 01:33:52;;;;;;;2.80;2.53;;;;;;;16.61;74.30;100914.94;6256037;22;20012;-74
2021/06/10 01:36:20;;;;;;;4.60;4.20;;;;;;;16.61;74.42;100913.00;6285113;22;20461;-72
2021/06/10 01:38:50;;;;;;;4.45;4.15;;;;;;;16.54;74.63;100907.84;6261357;22;20086;-76
2021/06/10 01:41:18;;;;;;;3.58;3.38;;;;;;;16.53;75.00;100897.91;6289566;22;20078;-75
2021/06/10 01:43:45;;;;;;;3.95;3.65;;;;;;;16.57;74.87;100900.91;6291080;22;20065;-76
2021/06/10 01:46:12;;;;;;;3.72;3.40;;;;;;;16.58;75.05;100908.06;6289121;22;20007;-75
2021/06/10 01:48:44;;;;;;;3.60;3.30;;;;;;;16.60;74.95;100905.00;6289169;22;20007;-75
2021/06/10 01:51:10;;;;;;;3.42;3.22;;;;;;;16.59;74.89;100904.19;6290403;22;19999;-75
2021/06/10 01:53:43;;;;;;;3.13;2.97;;;;;;;16.66;74.91;100909.34;6323349;22;20007;-74
2021/06/10 01:56:10;;;;;;;2.22;2.13;;;;;;;16.66;74.51;100898.31;6322395;22;20018;-73
2021/06/10 01:58:37;;;;;;;3.30;3.10;;;;;;;16.70;74.80;100893.84;6313615;22;20493;-74
2021/06/10 02:01:05;;;;;;;2.90;2.53;;;;;;;16.70;74.68;100893.84;6287314;22;20034;-74
2021/06/10 02:03:31;;;;;;;2.33;2.22;;;;;;;16.72;74.56;100891.63;6314024;22;20015;-74
2021/06/10 02:05:59;;;;;;;3.17;2.90;;;;;;;16.70;74.63;100891.06;6315135;22;20410;-73
2021/06/10 02:08:25;;;;;;;3.80;3.38;;;;;;;16.70;74.51;100902.13;6315802;22;20034;-75
2021/06/10 02:10:56;;;;;;;3.63;3.15;;;;;;;16.66;74.67;100909.34;6317742;22;20003;-75
2021/06/10 02:13:26;;;;;;;4.32;3.20;;;;;;;16.62;75.35;100900.84;6313194;22;19999;-76
2021/06/10 02:15:53;;;;;;;5.68;3.55;;;;;;;16.55;75.50;100901.19;6317255;22;20022;-73
2021/06/10 02:18:19;;;;;;;2.65;2.30;;;;;;;16.51;75.70;100891.84;6288127;22;20003;-72
2021/06/10 02:20:45;;;;;;;2.20;2.03;;;;;;;16.50;75.76;100884.72;6315920;22;20007;-74
2021/06/10 02:23:10;;;;;;;2.67;2.58;;;;;;;16.52;75.97;100887.97;6262693;22;20022;-73
2021/06/10 02:25:36;;;;;;;2.58;2.47;;;;;;;16.44;75.86;100868.50;6289027;22;20058;-72
2021/06/10 02:28:04;;;;;;;2.70;2.60;;;;;;;16.51;76.22;100874.47;6316564;22;19995;-74
2021/06/10 02:30:30;;;;;;;2.97;2.83;;;;;;;16.48;76.12;100869.56;6314350;22;20082;-74
2021/06/10 02:32:56;;;;;;;3.55;3.33;;;;;;;16.49;76.09;100888.56;6315664;22;19999;-73
2021/06/10 02:35:22;;;;;;;3.30;3.17;;;;;;;16.43;76.72;100887.00;6263976;22;20003;-72
2021/06/10 02:37:50;;;;;;;3.53;3.28;;;;;;;16.47;76.49;100896.34;6314677;22;20413;-73
2021/06/10 02:40:22;;;;;;;3.65;3.45;;;;;;;16.44;77.07;100891.41;6314942;22;20274;-74
2021/06/10 02:42:48;;;;;;;4.55;4.25;;;;;;;16.36;77.39;100894.81;6288027;22;20029;-72
2021/06/10 02:45:15;;;;;;;6.28;3.80;;;;;;;16.32;77.98;100888.22;6317298;22;20007;-73
2021/06/10 02:47:41;;;;;;;3.95;3.55;;;;;;;16.31;77.46;100897.63;6315280;22;19999;-73
2021/06/10 02:50:11;;;;;;;4.40;4.00;;;;;;;16.25;78.39;100898.78;6316315;22;20007;-73
2021/06/10 02:52:41;;;;;;;3.97;3.78;;;;;;;16.22;79.15;100884.47;6313588;22;20009;-72
2021/06/10 02:55:07;;;;;;;3.75;3.55;;;;;;;16.20;78.60;100897.72;6315449;22;20047;-71
2021/06/10 02:57:33;;;;;;;4.78;4.38;;;;;;;16.22;78.66;100892.75;6288990;22;20007;-73
2021/06/10 03:00:00;;;;;;;2.80;2.70;;;;;;;16.28;78.63;100881.66;6315141;22;20004;-73
2021/06/10 03:02:26;;;;;;;2.90;2.80;;;;;;;16.35;78.44;100882.13;6291186;22;20008;-73
2021/06/10 03:04:52;;;;;;;4.40;4.03;;;;;;;16.34;78.36;100880.47;6312634;22;20038;-76
2021/06/10 03:07:22;;;;;;;2.97;2.88;;;;;;;16.38;78.26;100881.53;6290222;22;20003;-76
2021/06/10 03:09:48;;;;;;;3.80;3.60;;;;;;;16.43;78.37;100900.81;6314630;22;20064;-75
2021/06/10 03:12:20;;;;;;;3.40;3.20;;;;;;;16.43;78.55;100895.28;6318361;22;20003;-76
2021/06/10 03:14:46;;;;;;;3.60;3.33;;;;;;;16.44;78.39;100896.94;6317140;22;20006;-75
2021/06/10 03:17:14;;;;;;;4.97;3.80;;;;;;;16.39;78.57;100886.75;6315616;22;20007;-75
2021/06/10 03:19:40;;;;;;;5.40;3.42;;;;;;;16.42;78.43;100890.06;6315229;22;20033;-74
2021/06/10 03:22:06;;;;;;;3.00;2.90;;;;;;;16.46;78.62;100888.34;6314431;22;20033;-75
2021/06/10 03:24:33;;;;;;;6.78;3.92;;;;;;;16.46;78.49;100891.94;6285681;22;20003;-75
2021/06/10 03:26:59;;;;;;;3.10;3.00;;;;;;;16.49;78.50;100887.75;6289879;22;20022;-73
2021/06/10 03:29:25;;;;;;;4.53;3.00;;;;;;;16.50;78.29;100895.75;6257846;22;20429;-73
2021/06/10 03:31:51;;;;;;;2.88;2.78;;;;;;;16.54;78.29;100888.53;6288587;22;20007;-74
2021/06/10 03:34:20;;;;;;;2.83;2.63;;;;;;;16.60;78.05;100899.50;6287481;22;20013;-74
2021/06/10 03:36:46;;;;;;;3.50;3.30;;;;;;;16.60;78.21;100897.53;6316002;22;20088;-74
2021/06/10 03:39:13;;;;;;;3.15;3.05;;;;;;;16.60;77.96;100892.03;6313596;22;20019;-73
2021/06/10 03:41:40;;;;;;;2.78;2.63;;;;;;;16.66;78.01;100892.78;6315093;22;20030;-72
2021/06/10 03:44:08;;;;;;;4.05;3.83;;;;;;;16.68;78.34;100901.63;6289799;22;20046;-72
2021/06/10 03:46:34;;;;;;;2.97;2.75;;;;;;;16.69;77.70;100903.22;6310298;22;20003;-73
2021/06/10 03:48:59;;;;;;;3.20;3.00;;;;;;;16.72;78.16;100908.19;6259196;22;20007;-76
2021/06/10 03:51:25;;;;;;;4.00;3.70;;;;;;;16.73;78.12;100909.81;6289724;22;20027;-74
2021/06/10 03:53:52;;;;;;;3.88;3.67;;;;;;;16.72;77.85;100897.97;6290417;22;20003;-73
2021/06/10 03:56:19;;;;;;;2.88;2.67;;;;;;;16.75;77.86;100902.06;6316897;22;20002;-74
2021/06/10 03:58:44;;;;;;;4.20;3.78;;;;;;;16.75;77.75;100888.25;6313671;22;20039;-74
2021/06/10 04:01:10;;;;;;;2.45;2.35;;;;;;;16.77;77.77;100894.31;6317207;22;20469;-74
2021/06/10 04:03:35;;;;;;;2.60;2.42;;;;;;;16.78;77.57;100890.44;6317146;22;20082;-74
2021/06/10 04:06:02;;;;;;;2.47;2.38;;;;;;;16.82;77.57;100891.47;6315417;22;20094;-73
2021/06/10 04:08:28;;;;;;;2.50;2.40;;;;;;;16.85;77.83;100895.56;6289433;22;20011;-74
2021/06/10 04:10:53;;;;;;;2.03;1.92;;;;;;;16.90;78.15;100903.84;6291772;22;20064;-73
2021/06/10 04:13:18;;;;;;;1.60;1.50;;;;;;;16.91;77.61;100889.72;6316441;22;20007;-73
2021/06/10 04:15:44;;;;;;;3.65;2.88;;;;;;;16.97;77.61;100897.94;6291008;22;20007;-73
2021/06/10 04:18:09;;;;;;;2.72;2.53;;;;;;;16.98;77.47;100883.00;6317636;22;20026;-76
2021/06/10 04:20:35;;;;;;;2.67;2.58;;;;;;;16.99;77.16;100885.47;6290817;22;20003;-73
2021/06/10 04:23:00;;;;;;;2.05;1.95;;;;;;;16.98;77.29;100878.31;6287859;22;20041;-73
2021/06/10 04:25:26;;;;;;;3.05;2.95;;;;;;;17.04;77.45;100885.41;6317379;22;20038;-73
2021/06/10 04:27:51;;;;;;;3.10;2.92;;;;;;;17.06;77.48;100896.16;6315652;22;20243;-72
2021/06/10 04:30:17;;;;;;;3.03;2.83;;;;;;;17.06;77.48;100901.69;6285052;22;20007;-73
2021/06/10 04:32:46;;;;;;;2.17;2.08;;;;;;;17.10;77.30;100899.97;6264519;22;20011;-73
2021/06/10 04:35:13;;;;;;;1.80;1.70;;;;;;;17.12;77.36;100886.66;6289300;22;20011;-73
2021/06/10 04:37:38;;;;;;;1.70;1.60;;;;;;;17.09;77.33;100896.38;6317461;22;20009;-73
2021/06/10 04:40:05;;;;;;;2.75;2.58;;;;;;;17.05;77.16;100889.78;6314859;22;20023;-74
2021/06/10 04:42:31;;;;;;;2.38;2.28;;;;;;;17.09;77.14;100906.59;6288121;22;20026;-71
2021/06/10 04:44:57;;;;;;;3.40;3.17;;;;;;;17.05;77.43;100900.03;6314732;22;20015;-72
2021/06/10 04:47:22;;;;;;;2.95;2.75;;;;;;;17.01;77.42;100901.75;6287597;22;20065;-72
2021/06/10 04:49:48;;;;;;;2.17;1.83;;;;;;;17.01;77.38;100898.97;6261989;22;20042;-74
2021/06/10 04:52:14;;;;;;;1.40;1.40;;;;;;;17.04;77.35;100892.84;6314103;22;20003;-72
2021/06/10 04:54:40;;;;;;;1.45;1.40;;;;;;;17.07;77.35;100897.81;6316420;22;20006;-72
2021/06/10 04:57:06;;;;;;;2.15;2.05;;;;;;;17.12;77.44;100900.47;6288893;22;20003;-72
2021/06/10 04:59:31;;;;;;;2.47;2.38;;;;;;;17.15;77.13;100905.41;6286334;22;20479;-73
2021/06/10 05:01:57;;;;;;;1.50;1.50;;;;;;;17.18;76.73;100904.81;6288071;22;20007;-72
2021/06/10 05:04:23;;;;;;;2.45;2.33;;;;;;;17.17;77.69;100897.66;6313288;22;20082;-72
2021/06/10 05:06:52;;;;;;;2.25;2.15;;;;;;;17.20;77.42;100897.06;6286097;22;20015;-73
2021/06/10 05:09:18;;;;;;;2.70;2.58;;;;;;;17.22;77.42;100899.53;6289154;22;20011;-74
2021/06/10 05:11:43;;;;;;;2.33;2.05;;;;;;;17.23;77.29;100907.50;6315476;22;20065;-73
2021/06/10 05:14:09;;;;;;;2.42;2.22;;;;;;;17.24;77.30;100903.63;6316261;22;20006;-73
2021/06/10 05:16:34;;;;;;;2.00;1.90;;;;;;;17.26;77.00;100906.91;6288283;22;20022;-73
2021/06/10 05:19:00;;;;;;;1.75;1.65;;;;;;;17.28;77.09;100907.41;6317547;22;20078;-74
2021/06/10 05:21:25;;;;;;;1.73;1.63;;;;;;;17.32;77.00;100906.81;6317961;22;20007;-70
2021/06/10 05:23:51;;;;;;;2.95;1.48;;;;;;;17.41;76.90;100907.78;6261818;22;20007;-72
2021/06/10 05:26:16;;;;;;;1.73;1.73;;;;;;;17.49;76.79;100901.56;6316584;22;20008;-72
2021/06/10 05:28:42;;;;;;;1.30;1.30;;;;;;;17.58;76.55;100902.53;6316673;22;20011;-72
2021/06/10 05:31:08;;;;;;;1.02;1.02;;;;;;;17.62;76.61;100903.59;6285137;22;20003;-72
2021/06/10 05:33:35;;;;;;;0.95;0.95;;;;;;;17.74;76.11;100899.50;6316202;22;20006;-72
2021/06/10 05:36:02;;;;;;;0.93;0.93;;;;;;;17.83;75.87;100897.69;6315123;22;20125;-72
2021/06/10 05:38:29;;;;;;;0.82;0.82;;;;;;;17.90;75.76;100898.16;6263699;22;20011;-72
2021/06/10 05:40:55;;;;;;;1.30;0.80;;;;;;;17.95;75.75;100895.28;6282730;22;20053;-72
2021/06/10 05:43:23;;;;;;;1.75;1.25;;;;;;;18.03;75.12;100901.25;6316812;22;20059;-72
2021/06/10 05:45:49;;;;;;;0.80;0.80;;;;;;;18.11;74.84;100903.31;6313773;22;20007;-72
2021/06/10 05:48:15;;;;;;;0.70;0.70;;;;;;;18.16;74.80;100897.69;6261193;22;20029;-72
2021/06/10 05:50:40;;;;;;;0.93;0.82;;;;;;;18.23;74.45;100900.06;6286220;22;20007;-71
2021/06/10 05:53:08;;;;;;;1.05;1.05;;;;;;;18.27;74.32;100907.44;6287640;22;20087;-71
2021/06/10 05:55:33;;;;;;;0.85;0.85;;;;;;;18.23;74.00;100911.94;6284834;22;20003;-72
2021/06/10 05:57:59;;;;;;;1.30;1.30;;;;;;;18.24;74.42;100913.59;6289976;22;20010;-71
2021/06/10 06:00:24;;;;;;;1.20;1.20;;;;;;;18.29;73.94;100916.25;6288238;22;20011;-74
2021/06/10 06:02:50;;;;;;;1.42;1.33;;;;;;;18.33;73.80;100907.34;6317017;22;20011;-74
2021/06/10 06:05:15;;;;;;;0.75;0.75;;;;;;;18.40;73.77;100916.03;6267559;22;20014;-76
2021/06/10 06:07:41;;;;;;;0.70;0.70;;;;;;;18.47;73.39;100916.44;6288384;22;20086;-76
2021/06/10 06:10:07;;;;;;;1.30;1.30;;;;;;;18.50;73.41;100918.63;6264405;22;20007;-77
2021/06/10 06:12:33;;;;;;;0.85;0.85;;;;;;;18.54;72.99;100907.75;6289298;22;20014;-74
2021/06/10 06:14:59;;;;;;;1.10;1.10;;;;;;;18.57;72.95;100907.94;6318191;22;20051;-74
2021/06/10 06:17:24;;;;;;;0.70;0.70;;;;;;;18.67;72.83;100910.53;6290005;22;20007;-74
2021/06/10 06:19:50;;;;;;;0.70;0.70;;;;;;;18.67;72.46;100890.28;6289980;22;20321;-74
2021/06/10 06:22:16;;;;;;;2.35;1.00;;;;;;;18.80;72.29;100902.50;6287907;22;20000;-73
2021/06/10 06:24:41;;;;;;;0.70;0.70;;;;;;;18.81;72.51;100915.22;6315881;22;20068;-75
2021/06/10 06:27:08;;;;;;;1.60;1.33;;;;;;;18.89;71.68;100913.69;6291365;22;20011;-75
2021/06/10 06:29:34;;;;;;;1.85;1.20;;;;;;;18.91;71.55;100920.56;6290125;22;20003;-74
2021/06/10 06:32:00;;;;;;;2.60;1.15;;;;;;;18.93;71.48;100932.16;6316691;22;20003;-74
2021/06/10 06:34:26;;;;;;;1.23;1.23;;;;;;;18.92;70.91;100933.28;6316004;22;20006;-74
2021/06/10 06:36:51;;;;;;;0.88;0.88;;;;;;;18.96;71.03;100927.94;6316621;22;20027;-75
2021/06/10 06:39:17;;;;;;;1.02;1.02;;;;;;;18.95;71.06;100932.69;6309840;22;20023;-75
2021/06/10 06:41:43;;;;;;;1.00;1.00;;;;;;;18.94;70.55;100939.34;6316222;22;20007;-74
2021/06/10 06:44:09;;;;;;;0.70;0.70;;;;;;;18.94;70.92;100936.56;6316111;22;20007;-74
2021/06/10 06:46:35;;;;;;;0.57;0.57;;;;;;;18.97;70.34;100935.16;6317924;22;20759;-75
2021/06/10 06:49:06;;;;;;;0.63;0.63;;;;;;;19.01;70.36;100948.06;6316439;22;20039;-78
2021/06/10 06:51:32;;;;;;;0.50;0.50;;;;;;;19.07;70.28;100939.63;6289730;22;20007;-73
2021/06/10 06:53:58;;;;;;;0.30;0.30;;;;;;;19.16;69.92;100943.31;6287953;22;20007;-74
2021/06/10 06:56:24;;;;;;;0.57;0.32;;;;;;;19.25;70.12;100935.91;6261557;22;20081;-73
2021/06/10 06:58:53;;;;;;;0.40;0.40;;;;;;;19.39;69.54;100946.97;6286943;22;20009;-74
2021/06/10 07:01:19;;;;;;;0.30;0.30;;;;;;;19.52;69.34;100945.25;6285548;22;20307;-76
2021/06/10 07:03:45;;;;;;;0.20;0.20;;;;;;;19.65;68.16;100949.09;6313952;22;20008;-73
2021/06/10 07:06:11;;;;;;;0.40;0.30;;;;;;;19.81;67.77;100946.81;6286054;22;20037;-74
2021/06/10 07:08:36;;;;;;;0.40;0.40;;;;;;;19.91;67.45;100929.88;6287320;22;20007;-74
2021/06/10 07:11:03;;;;;;;0.30;0.30;;;;;;;20.12;66.65;100946.00;6286883;22;20062;-73
2021/06/10 07:13:31;;;;;;;0.30;0.30;;;;;;;20.22;66.25;100949.34;6286876;22;20053;-74
2021/06/10 07:15:57;;;;;;;0.40;0.40;;;;;;;20.25;65.72;100947.88;6281371;22;20011;-74
2021/06/10 07:18:29;;;;;;;0.40;0.40;;;;;;;20.22;65.43;100952.13;6261214;22;20011;-75
2021/06/10 07:20:55;;;;;;;0.40;0.40;;;;;;;20.26;65.99;100943.97;6314932;22;20014;-75
2021/06/10 07:23:21;;;;;;;0.20;0.20;;;;;;;20.40;65.20;100955.78;6310469;22;20031;-74
2021/06/10 07:25:46;;;;;;;0.10;0.10;;;;;;;20.47;65.33;100940.63;6313146;22;20010;-74
2021/06/10 07:28:14;;;;;;;0.38;0.30;;;;;;;20.73;64.18;100952.69;6312774;22;20005;-74
2021/06/10 07:30:40;;;;;;;0.32;0.20;;;;;;;20.83;64.38;100957.13;6286730;22;20010;-75
2021/06/10 07:33:06;;;;;;;0.10;0.10;;;;;;;20.92;64.62;100963.53;6312778;22;20007;-74
2021/06/10 07:35:35;;;;;;;0.20;0.20;;;;;;;20.98;64.20;100950.28;6289691;22;20003;-75
2021/06/10 07:38:03;;;;;;;0.25;0.25;;;;;;;20.98;63.55;100961.41;6317119;22;20031;-75
2021/06/10 07:40:30;;;;;;;0.30;0.22;;;;;;;20.91;63.54;100948.00;6314136;22;20021;-74
2021/06/10 07:42:56;;;;;;;0.40;0.40;;;;;;;20.85;63.43;100929.00;6286889;22;20062;-75
2021/06/10 07:45:22;;;;;;;0.30;0.30;;;;;;;20.92;63.14;100946.03;6313771;22;20043;-73
2021/06/10 07:47:48;;;;;;;0.20;0.20;;;;;;;21.04;62.97;100954.56;6310929;22;20008;-74
2021/06/10 07:50:14;;;;;;;0.20;0.20;;;;;;;21.16;62.70;100955.88;6311797;22;20038;-74
2021/06/10 07:52:39;;;;;;;0.10;0.10;;;;;;;21.28;63.11;100947.72;6278516;22;20011;-74
2021/06/10 07:55:05;;;;;;;0.40;0.40;;;;;;;21.41;62.31;100949.53;6309345;22;20007;-74
2021/06/10 07:57:31;;;;;;;0.40;0.40;;;;;;;21.43;62.53;100955.56;6287267;22;20060;-75
2021/06/10 07:59:57;;;;;;;0.20;0.20;;;;;;;21.52;62.06;100963.13;6287245;22;20007;-75
2021/06/10 08:02:24;;;;;;;0.32;0.32;;;;;;;21.50;61.29;100959.84;6311139;22;20007;-74
2021/06/10 08:04:49;;;;;;;0.40;0.40;;;;;;;21.62;61.57;100960.03;6288541;22;20014;-74
2021/06/10 08:07:15;;;;;;;0.28;0.28;;;;;;;21.79;61.69;100957.22;6313785;22;20007;-74
2021/06/10 08:09:40;;;;;;;0.47;0.47;;;;;;;21.85;60.39;100965.41;6306350;22;20026;-73
2021/06/10 08:12:06;;;;;;;0.20;0.20;;;;;;;21.90;61.17;100963.28;6260513;22;20003;-73
2021/06/10 08:14:31;;;;;;;1.05;0.47;;;;;;;21.99;60.64;100960.50;6314248;22;19999;-72
2021/06/10 08:16:57;;;;;;;0.30;0.30;;;;;;;22.05;60.37;100964.72;6311013;22;20087;-73
2021/06/10 08:19:22;;;;;;;0.40;0.28;;;;;;;22.14;59.76;100965.50;6313979;22;20015;-72
2021/06/10 08:21:48;;;;;;;0.20;0.20;;;;;;;22.25;59.80;100959.59;6282782;22;20007;-73
2021/06/10 08:24:15;;;;;;;0.20;0.20;;;;;;;22.42;59.65;100967.09;6282928;22;20030;-72
2021/06/10 08:26:43;;;;;;;0.30;0.22;;;;;;;22.60;59.18;100977.00;6313813;22;20087;-72
2021/06/10 08:29:08;;;;;;;0.20;0.20;;;;;;;22.68;59.28;100969.78;6306320;22;20003;-73
2021/06/10 08:31:34;;;;;;;0.20;0.20;;;;;;;22.76;58.60;100974.47;6314344;22;20014;-72
2021/06/10 08:33:59;;;;;;;0.20;0.20;;;;;;;22.81;58.21;100974.31;6313052;22;20086;-73
2021/06/10 08:36:25;;;;;;;0.20;0.20;;;;;;;22.87;58.25;100971.31;6280457;22;20102;-73
2021/06/10 08:38:51;;;;;;;0.20;0.20;;;;;;;22.96;58.02;100969.31;6285264;22;20007;-72
2021/06/10 08:41:17;;;;;;;0.20;0.20;;;;;;;23.05;57.65;100967.28;6287574;22;20003;-75
2021/06/10 08:43:43;;;;;;;5.93;0.40;;;;;;;23.13;56.86;100969.22;6313457;22;20007;-73
2021/06/10 08:46:11;;;;;;;0.35;0.35;;;;;;;23.05;56.36;100963.69;6315763;22;19999;-76
2021/06/10 08:48:39;;;;;;;0.50;0.38;;;;;;;22.96;56.51;100963.72;6314765;22;20003;-75
2021/06/10 08:51:06;;;;;;;0.20;0.20;;;;;;;22.90;56.71;100956.72;6313777;22;20030;-75
2021/06/10 08:53:32;;;;;;;0.30;0.30;;;;;;;22.93;56.87;100958.84;6286981;22;20029;-73
2021/06/10 08:55:58;;;;;;;0.35;0.30;;;;;;;23.05;56.85;100961.69;6315118;22;20003;-73
2021/06/10 08:58:25;;;;;;;0.40;0.40;;;;;;;23.13;56.53;100968.41;6286763;22;20010;-74
2021/06/10 09:00:52;;;;;;;0.17;0.17;;;;;;;23.16;56.19;100964.97;6310390;22;20009;-74
2021/06/10 09:03:26;;;;;;;0.30;0.30;;;;;;;23.21;56.15;100975.91;6287674;22;20038;-74
2021/06/10 09:06:03;;;;;;;0.20;0.20;;;;;;;23.43;56.14;100980.31;6311792;22;20341;-74
2021/06/10 09:08:29;;;;;;;1.10;0.63;;;;;;;23.49;54.89;100981.75;6286011;22;20006;-74
2021/06/10 09:11:27;;;;;;;0.43;0.25;;;;;;;23.44;54.70;100979.19;6306879;22;20014;-75
2021/06/10 09:13:55;;;;;;;0.20;0.20;;;;;;;23.25;54.63;100978.84;6280101;22;20007;-73
2021/06/10 09:16:29;;;;;;;0.30;0.30;;;;;;;23.24;55.06;100980.00;6287384;22;20045;-74
2021/06/10 09:18:56;;;;;;;0.10;0.10;;;;;;;23.20;54.82;100974.25;6322869;22;19999;-73
2021/06/10 09:21:26;;;;;;;0.20;0.20;;;;;;;23.28;55.05;100976.19;6314729;22;20003;-75
2021/06/10 09:23:52;;;;;;;0.30;0.30;;;;;;;23.29;54.26;100976.97;6322380;22;20007;-73
2021/06/10 09:26:46;;;;;;;0.20;0.20;;;;;;;23.31;54.65;100972.72;6318569;22;20060;-74
2021/06/10 09:29:11;;;;;;;0.40;0.22;;;;;;;23.22;54.71;100971.97;6314062;22;20056;-74
2021/06/10 09:31:39;;;;;;;0.43;0.20;;;;;;;23.25;55.08;100976.84;6283736;22;20086;-74
2021/06/10 09:34:13;;;;;;;0.20;0.20;;;;;;;23.43;55.11;100976.72;6312662;22;20106;-75
2021/06/10 09:36:43;;;;;;;0.20;0.20;;;;;;;23.59;54.28;100968.56;6311819;22;20003;-74
2021/06/10 09:39:14;;;;;;;0.20;0.20;;;;;;;23.71;53.89;100979.78;6313355;22;20023;-74
2021/06/10 09:42:00;;;;;;;0.22;0.20;;;;;;;23.92;54.56;100985.38;6312366;22;20003;-73
2021/06/10 09:44:48;;;;;;;1.33;0.45;;;;;;;24.13;53.31;100988.09;6311961;22;20003;-74
2021/06/10 09:47:14;;;;;;;0.30;0.30;;;;;;;24.15;53.45;100985.81;6311130;22;20007;-74
2021/06/10 09:49:39;;;;;;;0.20;0.20;;;;;;;24.16;53.10;100993.00;6284725;22;20033;-74
2021/06/10 09:52:05;;;;;;;0.30;0.30;;;;;;;24.04;53.01;100995.75;6310134;22;20014;-73
2021/06/10 09:54:38;;;;;;;0.10;0.10;;;;;;;23.90;52.96;100998.03;6314304;22;20010;-73
2021/06/10 09:57:04;;;;;;;0.20;0.20;;;;;;;23.82;53.30;100999.72;6312531;22;20005;-73
2021/06/10 09:59:42;;;;;;;0.28;0.28;;;;;;;23.82;53.43;100994.16;6282654;22;20030;-74
2021/06/10 10:02:18;;;;;;;0.40;0.40;;;;;;;23.75;53.89;101000.28;6311713;22;20086;-74
2021/06/10 10:05:06;;;;;;;0.28;0.28;;;;;;;23.74;54.11;100989.44;6310438;22;20029;-74
2021/06/10 10:07:34;;;;;;;0.30;0.30;;;;;;;23.93;54.13;100988.97;6312470;22;20037;-74
2021/06/10 10:10:03;;;;;;;0.20;0.20;;;;;;;24.49;54.02;100994.94;6285949;22;20018;-74
2021/06/10 10:12:30;;;;;;;0.30;0.30;;;;;;;24.98;52.88;100994.16;6311228;22;20000;-73
2021/06/10 10:14:56;;;;;;;0.43;0.43;;;;;;;25.38;50.92;100989.84;6286273;22;20003;-73
2021/06/10 10:17:24;;;;;;;0.40;0.40;;;;;;;25.73;50.61;100989.25;6308517;22;20007;-74
2021/06/10 10:19:50;;;;;;;0.40;0.40;;;;;;;26.02;50.35;100984.47;6283783;22;20041;-74
2021/06/10 10:22:16;;;;;;;0.30;0.25;;;;;;;26.30;49.18;100979.66;6282722;22;20030;-75
2021/06/10 10:24:42;;;;;;;0.50;0.50;;;;;;;26.53;48.54;100984.63;6281870;22;20130;-74
2021/06/10 10:27:10;;;;;;;0.40;0.40;;;;;;;26.54;47.77;100983.47;6285269;22;19999;-74
2021/06/10 10:29:38;;;;;;;0.40;0.40;;;;;;;26.57;47.79;100982.72;6281085;22;20076;-74
2021/06/10 10:32:06;;;;;;;0.20;0.20;;;;;;;26.54;47.69;100982.66;6311930;22;20023;-75
2021/06/10 10:34:35;;;;;;;0.63;0.63;;;;;;;26.53;47.58;100975.41;6312581;22;20003;-74
2021/06/10 10:37:25;;;;;;;0.47;0.47;;;;;;;26.47;46.81;100978.50;6313323;22;19999;-75
2021/06/10 10:39:54;;;;;;;0.70;0.70;;;;;;;26.06;47.35;100968.59;6312084;22;20011;-74
2021/06/10 10:42:28;;;;;;;0.50;0.50;;;;;;;25.82;48.23;100977.88;6312956;22;20018;-74
2021/06/10 10:45:15;;;;;;;0.60;0.60;;;;;;;25.81;47.91;100971.47;6310142;22;20000;-74
2021/06/10 10:48:07;;;;;;;0.82;0.82;;;;;;;25.95;48.46;100983.09;6283528;22;20058;-74
2021/06/10 10:50:37;;;;;;;2.83;0.57;;;;;;;26.25;48.64;100985.50;6313154;22;19999;-74
2021/06/10 10:53:07;;;;;;;0.90;0.90;;;;;;;26.45;48.26;100992.03;6279409;22;20413;-74
2021/06/10 10:55:32;;;;;;;0.60;0.60;;;;;;;26.75;47.55;100983.22;6287033;22;20003;-72
2021/06/10 10:57:59;;;;;;;0.60;0.60;;;;;;;26.88;47.11;100988.72;6286101;22;20029;-74
2021/06/10 11:01:04;;;;;;;0.70;0.70;;;;;;;27.24;46.30;100981.13;6310325;22;20037;-75
2021/06/10 11:03:42;;;;;;;5.60;0.75;;;;;;;27.11;46.20;100983.25;6211484;23;20015;-73
2021/06/10 11:06:25;;;;;;;0.60;0.60;;;;;;;27.06;46.07;100980.72;6222115;23;20016;-73
2021/06/10 11:09:14;;;;;;;0.50;0.50;;;;;;;26.92;46.38;100993.22;6256724;22;20326;-73
2021/06/10 11:12:00;;;;;;;0.50;0.50;;;;;;;26.92;46.18;100981.19;6314811;22;20081;-74
2021/06/10 11:14:39;;;;;;;0.88;0.88;;;;;;;26.80;46.10;100994.16;6317083;22;19995;-73
2021/06/10 11:17:42;;;;;;;0.70;0.70;;;;;;;26.69;46.19;100984.66;6315158;22;20003;-72
2021/06/10 11:20:11;;;;;;;0.93;0.93;;;;;;;26.37;47.16;100978.19;6289988;22;20007;-74
2021/06/10 11:22:49;;;;;;;1.20;1.20;;;;;;;26.34;47.37;100990.13;6312380;22;20003;-75
2021/06/10 11:25:36;;;;;;;1.02;1.02;;;;;;;26.21;47.05;100987.44;6316916;22;20007;-75
2021/06/10 11:28:18;;;;;;;1.58;1.48;;;;;;;26.04;48.12;100984.97;6290413;22;20003;-75
2021/06/10 11:31:14;;;;;;;1.45;1.35;;;;;;;26.13;48.09;100974.38;6284955;22;20007;-76